sensor_id;sensor_type;location;lat;lon;timestamp;P1;durP1;ratioP1;P2;durP2;ratioP2
15273;SDS011;7738;49.532;11.156;2023-05-07T00:01:18;1.88;;;0.88;;
15273;SDS011;7738;49.532;11.156;2023-05-07T00:03:48;1.70;;;1.02;;
15273;SDS011;7738;49.532;11.156;2023-05-07T00:06:18;1.52;;;0.98;;
15273;SDS011;7738;49.532;11.156;2023-05-07T00:08:52;1.30;;;0.73;;
15273;SDS011;7738;49.532;11.156;2023-05-07T00:11:22;1.67;;;0.90;;
15273;SDS011;7738;49.532;11.156;2023-05-07T00:13:52;2.15;;;1.40;;
15273;SDS011;7738;49.532;11.156;2023-05-07T00:16:23;1.73;;;1.10;;
15273;SDS011;7738;49.532;11.156;2023-05-07T00:18:53;1.17;;;1.05;;
15273;SDS011;7738;49.532;11.156;2023-05-07T00:21:23;2.58;;;1.08;;
15273;SDS011;7738;49.532;11.156;2023-05-07T00:23:58;1.13;;;1.02;;
15273;SDS011;7738;49.532;11.156;2023-05-07T00:26:28;2.70;;;1.38;;
15273;SDS011;7738;49.532;11.156;2023-05-07T00:28:58;2.30;;;1.20;;
15273;SDS011;7738;49.532;11.156;2023-05-07T00:31:28;2.65;;;1.50;;
15273;SDS011;7738;49.532;11.156;2023-05-07T00:33:59;2.63;;;1.80;;
15273;SDS011;7738;49.532;11.156;2023-05-07T00:36:29;3.67;;;1.75;;
15273;SDS011;7738;49.532;11.156;2023-05-07T00:39:02;1.67;;;1.58;;
15273;SDS011;7738;49.532;11.156;2023-05-07T00:41:33;1.88;;;1.20;;
15273;SDS011;7738;49.532;11.156;2023-05-07T00:44:03;3.50;;;1.42;;
15273;SDS011;7738;49.532;11.156;2023-05-07T00:46:33;1.77;;;1.33;;
15273;SDS011;7738;49.532;11.156;2023-05-07T00:49:04;2.05;;;1.27;;
15273;SDS011;7738;49.532;11.156;2023-05-07T00:51:34;1.52;;;1.17;;
15273;SDS011;7738;49.532;11.156;2023-05-07T00:54:07;2.95;;;2.28;;
15273;SDS011;7738;49.532;11.156;2023-05-07T00:56:38;2.40;;;1.88;;
15273;SDS011;7738;49.532;11.156;2023-05-07T00:59:08;3.85;;;1.70;;
15273;SDS011;7738;49.532;11.156;2023-05-07T01:01:38;2.80;;;1.70;;
15273;SDS011;7738;49.532;11.156;2023-05-07T01:04:09;2.28;;;1.48;;
15273;SDS011;7738;49.532;11.156;2023-05-07T01:06:40;3.70;;;1.65;;
15273;SDS011;7738;49.532;11.156;2023-05-07T01:09:14;3.30;;;1.80;;
15273;SDS011;7738;49.532;11.156;2023-05-07T01:11:44;3.23;;;1.70;;
15273;SDS011;7738;49.532;11.156;2023-05-07T01:14:15;3.03;;;2.15;;
15273;SDS011;7738;49.532;11.156;2023-05-07T01:16:45;3.33;;;2.05;;
15273;SDS011;7738;49.532;11.156;2023-05-07T01:21:50;2.40;;;2.13;;
15273;SDS011;7738;49.532;11.156;2023-05-07T01:24:26;3.20;;;1.77;;
15273;SDS011;7738;49.532;11.156;2023-05-07T01:26:56;2.20;;;1.97;;
15273;SDS011;7738;49.532;11.156;2023-05-07T01:29:31;2.53;;;2.30;;
15273;SDS011;7738;49.532;11.156;2023-05-07T01:32:01;3.60;;;2.45;;
15273;SDS011;7738;49.532;11.156;2023-05-07T01:34:32;4.70;;;2.33;;
15273;SDS011;7738;49.532;11.156;2023-05-07T01:37:05;2.50;;;2.30;;
15273;SDS011;7738;49.532;11.156;2023-05-07T01:39:38;2.95;;;2.65;;
15273;SDS011;7738;49.532;11.156;2023-05-07T01:42:10;4.57;;;2.22;;
15273;SDS011;7738;49.532;11.156;2023-05-07T01:44:40;3.13;;;2.20;;
15273;SDS011;7738;49.532;11.156;2023-05-07T01:47:10;4.22;;;2.13;;
15273;SDS011;7738;49.532;11.156;2023-05-07T01:49:42;3.63;;;2.47;;
15273;SDS011;7738;49.532;11.156;2023-05-07T01:52:12;3.05;;;2.50;;
15273;SDS011;7738;49.532;11.156;2023-05-07T01:54:45;3.15;;;2.67;;
15273;SDS011;7738;49.532;11.156;2023-05-07T01:57:15;4.10;;;2.90;;
15273;SDS011;7738;49.532;11.156;2023-05-07T01:59:45;3.03;;;2.53;;
15273;SDS011;7738;49.532;11.156;2023-05-07T02:02:17;3.75;;;2.97;;
15273;SDS011;7738;49.532;11.156;2023-05-07T02:04:48;5.88;;;2.90;;
15273;SDS011;7738;49.532;11.156;2023-05-07T02:07:20;8.00;;;2.97;;
15273;SDS011;7738;49.532;11.156;2023-05-07T02:09:54;4.28;;;2.50;;
15273;SDS011;7738;49.532;11.156;2023-05-07T02:12:24;2.88;;;2.47;;
15273;SDS011;7738;49.532;11.156;2023-05-07T02:14:55;4.65;;;3.40;;
15273;SDS011;7738;49.532;11.156;2023-05-07T02:17:25;3.67;;;2.97;;
15273;SDS011;7738;49.532;11.156;2023-05-07T02:19:59;5.18;;;2.67;;
15273;SDS011;7738;49.532;11.156;2023-05-07T02:22:30;3.40;;;3.10;;
15273;SDS011;7738;49.532;11.156;2023-05-07T02:25:03;7.18;;;2.83;;
15273;SDS011;7738;49.532;11.156;2023-05-07T02:27:34;5.95;;;3.70;;
15273;SDS011;7738;49.532;11.156;2023-05-07T02:30:05;3.65;;;3.20;;
15273;SDS011;7738;49.532;11.156;2023-05-07T02:32:36;3.92;;;3.25;;
15273;SDS011;7738;49.532;11.156;2023-05-07T02:35:07;4.43;;;3.20;;
15273;SDS011;7738;49.532;11.156;2023-05-07T02:37:37;5.20;;;3.50;;
15273;SDS011;7738;49.532;11.156;2023-05-07T02:40:11;3.30;;;3.00;;
15273;SDS011;7738;49.532;11.156;2023-05-07T02:42:41;3.50;;;3.03;;
15273;SDS011;7738;49.532;11.156;2023-05-07T02:45:12;3.67;;;3.33;;
15273;SDS011;7738;49.532;11.156;2023-05-07T02:47:44;4.47;;;3.08;;
15273;SDS011;7738;49.532;11.156;2023-05-07T02:50:15;4.18;;;3.78;;
15273;SDS011;7738;49.532;11.156;2023-05-07T02:52:46;5.57;;;4.20;;
15273;SDS011;7738;49.532;11.156;2023-05-07T02:55:19;6.53;;;4.00;;
15273;SDS011;7738;49.532;11.156;2023-05-07T02:57:50;4.47;;;3.53;;
15273;SDS011;7738;49.532;11.156;2023-05-07T03:00:21;4.88;;;3.97;;
15273;SDS011;7738;49.532;11.156;2023-05-07T03:03:01;4.78;;;3.65;;
15273;SDS011;7738;49.532;11.156;2023-05-07T03:05:32;4.97;;;4.28;;
15273;SDS011;7738;49.532;11.156;2023-05-07T03:08:02;5.32;;;4.47;;
15273;SDS011;7738;49.532;11.156;2023-05-07T03:10:35;5.97;;;4.43;;
15273;SDS011;7738;49.532;11.156;2023-05-07T03:13:06;4.47;;;4.07;;
15273;SDS011;7738;49.532;11.156;2023-05-07T03:15:37;7.22;;;3.95;;
15273;SDS011;7738;49.532;11.156;2023-05-07T03:18:07;5.03;;;4.22;;
15273;SDS011;7738;49.532;11.156;2023-05-07T03:20:38;5.28;;;4.30;;
15273;SDS011;7738;49.532;11.156;2023-05-07T03:23:08;5.05;;;3.80;;
15273;SDS011;7738;49.532;11.156;2023-05-07T03:25:41;3.97;;;3.40;;
15273;SDS011;7738;49.532;11.156;2023-05-07T03:28:11;5.80;;;4.57;;
15273;SDS011;7738;49.532;11.156;2023-05-07T03:30:50;6.00;;;4.28;;
15273;SDS011;7738;49.532;11.156;2023-05-07T03:33:21;6.13;;;4.45;;
15273;SDS011;7738;49.532;11.156;2023-05-07T03:35:52;5.20;;;4.40;;
15273;SDS011;7738;49.532;11.156;2023-05-07T03:38:24;7.80;;;4.85;;
15273;SDS011;7738;49.532;11.156;2023-05-07T03:40:57;5.25;;;4.75;;
15273;SDS011;7738;49.532;11.156;2023-05-07T03:43:28;6.95;;;4.70;;
15273;SDS011;7738;49.532;11.156;2023-05-07T03:46:04;6.88;;;4.65;;
15273;SDS011;7738;49.532;11.156;2023-05-07T03:48:35;6.97;;;4.63;;
15273;SDS011;7738;49.532;11.156;2023-05-07T03:51:06;5.55;;;4.93;;
15273;SDS011;7738;49.532;11.156;2023-05-07T03:53:36;6.80;;;5.53;;
15273;SDS011;7738;49.532;11.156;2023-05-07T03:56:10;7.43;;;4.80;;
15273;SDS011;7738;49.532;11.156;2023-05-07T03:58:42;7.00;;;5.30;;
15273;SDS011;7738;49.532;11.156;2023-05-07T04:01:12;5.45;;;4.25;;
15273;SDS011;7738;49.532;11.156;2023-05-07T04:03:43;7.75;;;5.40;;
15273;SDS011;7738;49.532;11.156;2023-05-07T04:06:15;6.90;;;5.15;;
15273;SDS011;7738;49.532;11.156;2023-05-07T04:08:47;8.20;;;4.97;;
15273;SDS011;7738;49.532;11.156;2023-05-07T04:11:20;6.05;;;5.15;;
15273;SDS011;7738;49.532;11.156;2023-05-07T04:13:50;5.97;;;5.03;;
15273;SDS011;7738;49.532;11.156;2023-05-07T04:16:22;7.22;;;5.50;;
15273;SDS011;7738;49.532;11.156;2023-05-07T04:18:53;10.07;;;5.75;;
15273;SDS011;7738;49.532;11.156;2023-05-07T04:21:23;6.28;;;4.82;;
15273;SDS011;7738;49.532;11.156;2023-05-07T04:23:55;6.55;;;5.25;;
15273;SDS011;7738;49.532;11.156;2023-05-07T04:26:28;10.90;;;5.32;;
15273;SDS011;7738;49.532;11.156;2023-05-07T04:28:59;7.82;;;5.90;;
15273;SDS011;7738;49.532;11.156;2023-05-07T04:31:32;8.05;;;6.70;;
15273;SDS011;7738;49.532;11.156;2023-05-07T04:34:03;6.68;;;5.70;;
15273;SDS011;7738;49.532;11.156;2023-05-07T04:36:34;10.10;;;6.63;;
15273;SDS011;7738;49.532;11.156;2023-05-07T04:39:09;7.68;;;5.60;;
15273;SDS011;7738;49.532;11.156;2023-05-07T04:41:45;6.72;;;5.30;;
15273;SDS011;7738;49.532;11.156;2023-05-07T04:44:16;9.77;;;6.33;;
15273;SDS011;7738;49.532;11.156;2023-05-07T04:46:47;9.90;;;6.05;;
15273;SDS011;7738;49.532;11.156;2023-05-07T04:49:18;6.03;;;4.88;;
15273;SDS011;7738;49.532;11.156;2023-05-07T04:51:49;5.13;;;4.63;;
15273;SDS011;7738;49.532;11.156;2023-05-07T04:54:22;7.75;;;5.45;;
15273;SDS011;7738;49.532;11.156;2023-05-07T04:56:55;7.03;;;5.90;;
15273;SDS011;7738;49.532;11.156;2023-05-07T04:59:26;7.18;;;5.25;;
15273;SDS011;7738;49.532;11.156;2023-05-07T05:01:56;8.05;;;5.55;;
15273;SDS011;7738;49.532;11.156;2023-05-07T05:04:27;7.25;;;5.70;;
15273;SDS011;7738;49.532;11.156;2023-05-07T05:06:58;8.23;;;6.15;;
15273;SDS011;7738;49.532;11.156;2023-05-07T05:09:30;8.00;;;6.18;;
15273;SDS011;7738;49.532;11.156;2023-05-07T05:12:03;7.40;;;6.28;;
15273;SDS011;7738;49.532;11.156;2023-05-07T05:14:37;8.23;;;5.90;;
15273;SDS011;7738;49.532;11.156;2023-05-07T05:17:07;7.72;;;5.97;;
15273;SDS011;7738;49.532;11.156;2023-05-07T05:19:37;7.90;;;5.75;;
15273;SDS011;7738;49.532;11.156;2023-05-07T05:22:08;9.13;;;6.10;;
15273;SDS011;7738;49.532;11.156;2023-05-07T05:24:38;10.52;;;6.03;;
15273;SDS011;7738;49.532;11.156;2023-05-07T05:27:11;8.88;;;6.10;;
15273;SDS011;7738;49.532;11.156;2023-05-07T05:29:41;6.80;;;5.03;;
15273;SDS011;7738;49.532;11.156;2023-05-07T05:32:12;8.40;;;5.40;;
15273;SDS011;7738;49.532;11.156;2023-05-07T05:34:44;7.72;;;5.72;;
15273;SDS011;7738;49.532;11.156;2023-05-07T05:37:14;9.98;;;6.22;;
15273;SDS011;7738;49.532;11.156;2023-05-07T05:39:45;7.93;;;5.90;;
15273;SDS011;7738;49.532;11.156;2023-05-07T05:42:18;10.13;;;6.13;;
15273;SDS011;7738;49.532;11.156;2023-05-07T05:44:48;8.07;;;6.13;;
15273;SDS011;7738;49.532;11.156;2023-05-07T05:47:19;7.00;;;5.95;;
15273;SDS011;7738;49.532;11.156;2023-05-07T05:49:53;6.20;;;5.35;;
15273;SDS011;7738;49.532;11.156;2023-05-07T05:52:23;7.60;;;6.10;;
15273;SDS011;7738;49.532;11.156;2023-05-07T05:54:55;9.20;;;6.00;;
15273;SDS011;7738;49.532;11.156;2023-05-07T05:57:29;8.70;;;5.60;;
15273;SDS011;7738;49.532;11.156;2023-05-07T06:00:00;7.15;;;6.07;;
15273;SDS011;7738;49.532;11.156;2023-05-07T06:02:32;7.72;;;5.15;;
15273;SDS011;7738;49.532;11.156;2023-05-07T06:05:05;7.72;;;5.13;;
15273;SDS011;7738;49.532;11.156;2023-05-07T06:07:36;8.57;;;5.97;;
15273;SDS011;7738;49.532;11.156;2023-05-07T06:10:07;9.80;;;5.88;;
15273;SDS011;7738;49.532;11.156;2023-05-07T06:12:42;8.15;;;4.70;;
15273;SDS011;7738;49.532;11.156;2023-05-07T06:15:13;7.95;;;5.55;;
15273;SDS011;7738;49.532;11.156;2023-05-07T06:17:44;7.97;;;5.28;;
15273;SDS011;7738;49.532;11.156;2023-05-07T06:20:16;6.90;;;5.18;;
15273;SDS011;7738;49.532;11.156;2023-05-07T06:22:47;6.80;;;5.35;;
15273;SDS011;7738;49.532;11.156;2023-05-07T06:25:17;5.35;;;4.72;;
15273;SDS011;7738;49.532;11.156;2023-05-07T06:27:50;6.20;;;5.10;;
15273;SDS011;7738;49.532;11.156;2023-05-07T06:30:22;6.38;;;5.07;;
15273;SDS011;7738;49.532;11.156;2023-05-07T06:32:54;6.18;;;4.95;;
15273;SDS011;7738;49.532;11.156;2023-05-07T06:35:26;5.53;;;4.78;;
15273;SDS011;7738;49.532;11.156;2023-05-07T06:37:56;6.95;;;5.07;;
15273;SDS011;7738;49.532;11.156;2023-05-07T06:40:28;8.45;;;5.15;;
15273;SDS011;7738;49.532;11.156;2023-05-07T06:43:02;6.10;;;4.80;;
15273;SDS011;7738;49.532;11.156;2023-05-07T06:45:41;6.05;;;4.80;;
15273;SDS011;7738;49.532;11.156;2023-05-07T06:50:56;5.50;;;4.43;;
15273;SDS011;7738;49.532;11.156;2023-05-07T06:53:28;7.43;;;4.82;;
15273;SDS011;7738;49.532;11.156;2023-05-07T06:56:00;6.40;;;5.03;;
15273;SDS011;7738;49.532;11.156;2023-05-07T06:58:33;7.65;;;4.85;;
15273;SDS011;7738;49.532;11.156;2023-05-07T07:01:04;6.57;;;4.72;;
15273;SDS011;7738;49.532;11.156;2023-05-07T07:03:36;8.40;;;5.75;;
15273;SDS011;7738;49.532;11.156;2023-05-07T07:06:06;5.68;;;4.30;;
15273;SDS011;7738;49.532;11.156;2023-05-07T07:08:37;4.57;;;4.18;;
15273;SDS011;7738;49.532;11.156;2023-05-07T07:11:10;7.63;;;4.53;;
15273;SDS011;7738;49.532;11.156;2023-05-07T07:13:44;5.03;;;4.28;;
15273;SDS011;7738;49.532;11.156;2023-05-07T07:16:14;5.38;;;4.35;;
15273;SDS011;7738;49.532;11.156;2023-05-07T07:18:45;5.22;;;4.45;;
15273;SDS011;7738;49.532;11.156;2023-05-07T07:21:15;7.50;;;4.80;;
15273;SDS011;7738;49.532;11.156;2023-05-07T07:23:46;7.20;;;4.05;;
15273;SDS011;7738;49.532;11.156;2023-05-07T07:26:18;5.43;;;4.28;;
15273;SDS011;7738;49.532;11.156;2023-05-07T07:28:51;5.80;;;3.80;;
15273;SDS011;7738;49.532;11.156;2023-05-07T07:31:22;6.03;;;4.78;;
15273;SDS011;7738;49.532;11.156;2023-05-07T07:33:53;4.10;;;3.67;;
15273;SDS011;7738;49.532;11.156;2023-05-07T07:36:24;5.78;;;4.55;;
15273;SDS011;7738;49.532;11.156;2023-05-07T07:39:12;6.47;;;4.63;;
15273;SDS011;7738;49.532;11.156;2023-05-07T07:41:44;6.10;;;3.70;;
15273;SDS011;7738;49.532;11.156;2023-05-07T07:44:18;5.50;;;3.88;;
15273;SDS011;7738;49.532;11.156;2023-05-07T07:46:53;5.95;;;4.38;;
15273;SDS011;7738;49.532;11.156;2023-05-07T07:49:25;7.75;;;4.38;;
15273;SDS011;7738;49.532;11.156;2023-05-07T07:51:59;8.05;;;4.20;;
15273;SDS011;7738;49.532;11.156;2023-05-07T07:54:31;6.85;;;4.50;;
15273;SDS011;7738;49.532;11.156;2023-05-07T07:57:03;5.53;;;3.80;;
15273;SDS011;7738;49.532;11.156;2023-05-07T07:59:36;6.00;;;4.60;;
15273;SDS011;7738;49.532;11.156;2023-05-07T08:02:08;4.57;;;4.10;;
15273;SDS011;7738;49.532;11.156;2023-05-07T08:04:38;5.22;;;4.72;;
15273;SDS011;7738;49.532;11.156;2023-05-07T08:07:09;4.32;;;3.90;;
15273;SDS011;7738;49.532;11.156;2023-05-07T08:09:43;4.78;;;4.22;;
15273;SDS011;7738;49.532;11.156;2023-05-07T08:12:16;3.97;;;3.58;;
15273;SDS011;7738;49.532;11.156;2023-05-07T08:14:50;4.88;;;4.05;;
15273;SDS011;7738;49.532;11.156;2023-05-07T08:17:20;7.18;;;4.43;;
15273;SDS011;7738;49.532;11.156;2023-05-07T08:19:51;6.13;;;4.32;;
15273;SDS011;7738;49.532;11.156;2023-05-07T08:22:21;5.75;;;4.22;;
15273;SDS011;7738;49.532;11.156;2023-05-07T08:24:52;5.22;;;4.18;;
15273;SDS011;7738;49.532;11.156;2023-05-07T08:27:22;5.72;;;4.00;;
15273;SDS011;7738;49.532;11.156;2023-05-07T08:29:55;5.22;;;4.65;;
15273;SDS011;7738;49.532;11.156;2023-05-07T08:32:25;4.88;;;4.03;;
15273;SDS011;7738;49.532;11.156;2023-05-07T08:34:56;6.82;;;4.03;;
15273;SDS011;7738;49.532;11.156;2023-05-07T08:37:26;4.72;;;4.20;;
15273;SDS011;7738;49.532;11.156;2023-05-07T08:39:58;4.60;;;4.15;;
15273;SDS011;7738;49.532;11.156;2023-05-07T08:42:32;5.32;;;4.18;;
15273;SDS011;7738;49.532;11.156;2023-05-07T08:45:09;4.88;;;3.92;;
15273;SDS011;7738;49.532;11.156;2023-05-07T08:47:43;4.50;;;4.00;;
15273;SDS011;7738;49.532;11.156;2023-05-07T08:50:18;5.38;;;4.20;;
15273;SDS011;7738;49.532;11.156;2023-05-07T08:52:50;7.07;;;3.42;;
15273;SDS011;7738;49.532;11.156;2023-05-07T08:55:21;4.68;;;4.05;;
15273;SDS011;7738;49.532;11.156;2023-05-07T08:57:52;4.18;;;3.78;;
15273;SDS011;7738;49.532;11.156;2023-05-07T09:00:25;5.57;;;4.57;;
15273;SDS011;7738;49.532;11.156;2023-05-07T09:02:57;4.68;;;4.28;;
15273;SDS011;7738;49.532;11.156;2023-05-07T09:05:27;6.38;;;3.67;;
15273;SDS011;7738;49.532;11.156;2023-05-07T09:07:58;4.90;;;4.20;;
15273;SDS011;7738;49.532;11.156;2023-05-07T09:10:29;4.65;;;3.45;;
15273;SDS011;7738;49.532;11.156;2023-05-07T09:12:59;6.15;;;3.40;;
15273;SDS011;7738;49.532;11.156;2023-05-07T09:15:32;4.57;;;3.20;;
15273;SDS011;7738;49.532;11.156;2023-05-07T09:18:03;5.13;;;2.85;;
15273;SDS011;7738;49.532;11.156;2023-05-07T09:20:36;4.60;;;3.60;;
15273;SDS011;7738;49.532;11.156;2023-05-07T09:23:07;6.38;;;3.58;;
15273;SDS011;7738;49.532;11.156;2023-05-07T09:25:38;4.68;;;3.50;;
15273;SDS011;7738;49.532;11.156;2023-05-07T09:28:14;2.53;;;2.30;;
15273;SDS011;7738;49.532;11.156;2023-05-07T09:30:47;3.58;;;3.28;;
15273;SDS011;7738;49.532;11.156;2023-05-07T09:33:18;5.15;;;3.30;;
15273;SDS011;7738;49.532;11.156;2023-05-07T09:35:51;4.78;;;3.08;;
15273;SDS011;7738;49.532;11.156;2023-05-07T09:38:21;3.88;;;2.83;;
15273;SDS011;7738;49.532;11.156;2023-05-07T09:41:02;3.75;;;3.15;;
15273;SDS011;7738;49.532;11.156;2023-05-07T09:43:39;5.18;;;2.85;;
15273;SDS011;7738;49.532;11.156;2023-05-07T09:46:16;7.05;;;3.28;;
15273;SDS011;7738;49.532;11.156;2023-05-07T09:48:52;4.72;;;3.28;;
15273;SDS011;7738;49.532;11.156;2023-05-07T09:51:28;3.50;;;3.20;;
15273;SDS011;7738;49.532;11.156;2023-05-07T09:53:59;2.97;;;2.58;;
15273;SDS011;7738;49.532;11.156;2023-05-07T09:56:33;5.70;;;2.90;;
15273;SDS011;7738;49.532;11.156;2023-05-07T09:59:05;3.80;;;2.50;;
15273;SDS011;7738;49.532;11.156;2023-05-07T10:01:40;3.70;;;2.20;;
15273;SDS011;7738;49.532;11.156;2023-05-07T10:04:12;3.97;;;2.80;;
15273;SDS011;7738;49.532;11.156;2023-05-07T10:06:44;3.60;;;3.03;;
15273;SDS011;7738;49.532;11.156;2023-05-07T10:09:15;3.40;;;2.63;;
15273;SDS011;7738;49.532;11.156;2023-05-07T10:11:45;4.78;;;3.13;;
15273;SDS011;7738;49.532;11.156;2023-05-07T10:14:20;4.32;;;2.95;;
15273;SDS011;7738;49.532;11.156;2023-05-07T10:16:53;5.10;;;2.25;;
15273;SDS011;7738;49.532;11.156;2023-05-07T10:19:25;4.72;;;2.85;;
15273;SDS011;7738;49.532;11.156;2023-05-07T10:21:59;4.80;;;3.03;;
15273;SDS011;7738;49.532;11.156;2023-05-07T10:24:36;4.93;;;2.72;;
15273;SDS011;7738;49.532;11.156;2023-05-07T10:27:12;3.17;;;2.45;;
15273;SDS011;7738;49.532;11.156;2023-05-07T10:29:52;5.63;;;3.10;;
15273;SDS011;7738;49.532;11.156;2023-05-07T10:32:39;3.40;;;2.90;;
15273;SDS011;7738;49.532;11.156;2023-05-07T10:35:25;3.50;;;2.97;;
15273;SDS011;7738;49.532;11.156;2023-05-07T10:38:02;4.05;;;3.05;;
15273;SDS011;7738;49.532;11.156;2023-05-07T10:40:35;4.63;;;2.60;;
15273;SDS011;7738;49.532;11.156;2023-05-07T10:43:06;3.10;;;2.45;;
15273;SDS011;7738;49.532;11.156;2023-05-07T10:45:49;3.25;;;2.40;;
15273;SDS011;7738;49.532;11.156;2023-05-07T11:01:15;2.85;;;2.00;;
15273;SDS011;7738;49.532;11.156;2023-05-07T11:04:35;3.15;;;2.05;;
15273;SDS011;7738;49.532;11.156;2023-05-07T11:07:27;1.70;;;1.42;;
15273;SDS011;7738;49.532;11.156;2023-05-07T11:10:06;2.20;;;1.70;;
15273;SDS011;7738;49.532;11.156;2023-05-07T11:12:49;1.87;;;1.50;;
15273;SDS011;7738;49.532;11.156;2023-05-07T11:15:33;1.63;;;0.77;;
15273;SDS011;7738;49.532;11.156;2023-05-07T11:18:27;1.88;;;0.80;;
15273;SDS011;7738;49.532;11.156;2023-05-07T11:21:37;3.50;;;1.25;;
15273;SDS011;7738;49.532;11.156;2023-05-07T11:24:24;1.27;;;0.90;;
15273;SDS011;7738;49.532;11.156;2023-05-07T11:26:58;2.47;;;0.82;;
15273;SDS011;7738;49.532;11.156;2023-05-07T11:29:30;0.90;;;0.65;;
15273;SDS011;7738;49.532;11.156;2023-05-07T11:32:07;1.33;;;0.60;;
15273;SDS011;7738;49.532;11.156;2023-05-07T11:34:46;2.00;;;0.80;;
15273;SDS011;7738;49.532;11.156;2023-05-07T11:37:24;1.70;;;0.73;;
15273;SDS011;7738;49.532;11.156;2023-05-07T11:40:03;1.92;;;0.57;;
15273;SDS011;7738;49.532;11.156;2023-05-07T11:42:36;1.75;;;0.63;;
15273;SDS011;7738;49.532;11.156;2023-05-07T11:45:08;1.20;;;0.60;;
15273;SDS011;7738;49.532;11.156;2023-05-07T11:47:41;1.77;;;0.68;;
15273;SDS011;7738;49.532;11.156;2023-05-07T11:50:11;0.90;;;0.70;;
15273;SDS011;7738;49.532;11.156;2023-05-07T11:52:49;0.90;;;0.50;;
15273;SDS011;7738;49.532;11.156;2023-05-07T11:55:21;2.28;;;0.65;;
15273;SDS011;7738;49.532;11.156;2023-05-07T11:57:53;0.55;;;0.50;;
15273;SDS011;7738;49.532;11.156;2023-05-07T12:00:23;1.88;;;0.60;;
15273;SDS011;7738;49.532;11.156;2023-05-07T12:02:53;3.03;;;1.00;;
15273;SDS011;7738;49.532;11.156;2023-05-07T12:05:24;1.48;;;0.80;;
15273;SDS011;7738;49.532;11.156;2023-05-07T12:07:58;1.00;;;0.45;;
15273;SDS011;7738;49.532;11.156;2023-05-07T12:10:28;1.42;;;0.40;;
15273;SDS011;7738;49.532;11.156;2023-05-07T12:12:59;2.78;;;1.10;;
15273;SDS011;7738;49.532;11.156;2023-05-07T12:15:29;1.05;;;0.70;;
15273;SDS011;7738;49.532;11.156;2023-05-07T12:17:59;1.63;;;1.10;;
15273;SDS011;7738;49.532;11.156;2023-05-07T12:20:30;2.90;;;1.58;;
15273;SDS011;7738;49.532;11.156;2023-05-07T12:23:03;2.42;;;1.92;;
15273;SDS011;7738;49.532;11.156;2023-05-07T12:25:34;3.97;;;2.78;;
15273;SDS011;7738;49.532;11.156;2023-05-07T12:28:05;2.15;;;1.95;;
15273;SDS011;7738;49.532;11.156;2023-05-07T12:30:36;3.03;;;1.70;;
15273;SDS011;7738;49.532;11.156;2023-05-07T12:33:06;2.42;;;1.58;;
15273;SDS011;7738;49.532;11.156;2023-05-07T12:35:38;1.83;;;1.23;;
15273;SDS011;7738;49.532;11.156;2023-05-07T12:38:13;3.15;;;1.30;;
15273;SDS011;7738;49.532;11.156;2023-05-07T12:40:45;1.95;;;1.10;;
15273;SDS011;7738;49.532;11.156;2023-05-07T12:43:18;1.45;;;0.93;;
15273;SDS011;7738;49.532;11.156;2023-05-07T12:45:49;5.50;;;1.40;;
15273;SDS011;7738;49.532;11.156;2023-05-07T12:48:22;1.60;;;1.08;;
15273;SDS011;7738;49.532;11.156;2023-05-07T12:50:54;2.50;;;1.48;;
15273;SDS011;7738;49.532;11.156;2023-05-07T12:53:27;3.42;;;1.67;;
15273;SDS011;7738;49.532;11.156;2023-05-07T12:58:29;1.90;;;1.25;;
15273;SDS011;7738;49.532;11.156;2023-05-07T13:01:00;2.95;;;1.42;;
15273;SDS011;7738;49.532;11.156;2023-05-07T13:03:34;2.95;;;1.40;;
15273;SDS011;7738;49.532;11.156;2023-05-07T13:06:05;2.78;;;1.27;;
15273;SDS011;7738;49.532;11.156;2023-05-07T13:08:40;1.92;;;1.40;;
15273;SDS011;7738;49.532;11.156;2023-05-07T13:11:11;2.88;;;1.20;;
15273;SDS011;7738;49.532;11.156;2023-05-07T13:13:41;2.45;;;1.58;;
15273;SDS011;7738;49.532;11.156;2023-05-07T13:16:12;2.10;;;1.27;;
15273;SDS011;7738;49.532;11.156;2023-05-07T13:18:42;2.45;;;1.63;;
15273;SDS011;7738;49.532;11.156;2023-05-07T13:21:13;2.38;;;1.95;;
15273;SDS011;7738;49.532;11.156;2023-05-07T13:23:46;3.42;;;2.13;;
15273;SDS011;7738;49.532;11.156;2023-05-07T13:26:16;2.10;;;1.50;;
15273;SDS011;7738;49.532;11.156;2023-05-07T13:28:52;3.58;;;1.52;;
15273;SDS011;7738;49.532;11.156;2023-05-07T13:31:23;2.22;;;1.83;;
15273;SDS011;7738;49.532;11.156;2023-05-07T13:33:54;2.25;;;1.67;;
15273;SDS011;7738;49.532;11.156;2023-05-07T13:36:25;3.08;;;1.98;;
15273;SDS011;7738;49.532;11.156;2023-05-07T13:38:58;3.55;;;1.60;;
15273;SDS011;7738;49.532;11.156;2023-05-07T13:41:29;2.50;;;1.92;;
15273;SDS011;7738;49.532;11.156;2023-05-07T13:43:59;2.17;;;1.88;;
15273;SDS011;7738;49.532;11.156;2023-05-07T13:46:29;2.33;;;1.50;;
15273;SDS011;7738;49.532;11.156;2023-05-07T13:49:00;5.22;;;2.10;;
15273;SDS011;7738;49.532;11.156;2023-05-07T13:51:30;2.38;;;1.70;;
15273;SDS011;7738;49.532;11.156;2023-05-07T13:54:03;2.70;;;1.92;;
15273;SDS011;7738;49.532;11.156;2023-05-07T13:56:34;2.53;;;1.90;;
15273;SDS011;7738;49.532;11.156;2023-05-07T13:59:04;2.97;;;1.90;;
15273;SDS011;7738;49.532;11.156;2023-05-07T14:01:35;3.30;;;1.80;;
15273;SDS011;7738;49.532;11.156;2023-05-07T14:04:05;2.58;;;1.60;;
15273;SDS011;7738;49.532;11.156;2023-05-07T14:06:35;2.83;;;2.13;;
15273;SDS011;7738;49.532;11.156;2023-05-07T14:09:08;3.03;;;1.80;;
15273;SDS011;7738;49.532;11.156;2023-05-07T14:11:39;2.55;;;1.48;;
15273;SDS011;7738;49.532;11.156;2023-05-07T14:14:10;4.10;;;1.85;;
15273;SDS011;7738;49.532;11.156;2023-05-07T14:16:40;3.08;;;2.00;;
15273;SDS011;7738;49.532;11.156;2023-05-07T14:19:12;2.30;;;1.90;;
15273;SDS011;7738;49.532;11.156;2023-05-07T14:21:45;2.25;;;1.90;;
15273;SDS011;7738;49.532;11.156;2023-05-07T14:24:18;1.88;;;1.50;;
15273;SDS011;7738;49.532;11.156;2023-05-07T14:27:03;1.80;;;1.55;;
15273;SDS011;7738;49.532;11.156;2023-05-07T14:29:33;3.22;;;1.88;;
15273;SDS011;7738;49.532;11.156;2023-05-07T14:32:04;4.07;;;1.98;;
15273;SDS011;7738;49.532;11.156;2023-05-07T14:34:34;3.15;;;1.95;;
15273;SDS011;7738;49.532;11.156;2023-05-07T14:37:04;2.28;;;1.60;;
15273;SDS011;7738;49.532;11.156;2023-05-07T14:39:37;3.38;;;1.80;;
15273;SDS011;7738;49.532;11.156;2023-05-07T14:42:08;4.55;;;2.35;;
15273;SDS011;7738;49.532;11.156;2023-05-07T14:44:39;2.22;;;1.67;;
15273;SDS011;7738;49.532;11.156;2023-05-07T14:47:11;1.98;;;1.67;;
15273;SDS011;7738;49.532;11.156;2023-05-07T14:49:45;2.78;;;1.63;;
15273;SDS011;7738;49.532;11.156;2023-05-07T14:52:15;2.90;;;1.45;;
15273;SDS011;7738;49.532;11.156;2023-05-07T14:54:49;5.47;;;2.90;;
15273;SDS011;7738;49.532;11.156;2023-05-07T14:59:50;2.13;;;1.60;;
15273;SDS011;7738;49.532;11.156;2023-05-07T15:02:21;3.78;;;2.42;;
15273;SDS011;7738;49.532;11.156;2023-05-07T15:04:54;6.95;;;6.30;;
15273;SDS011;7738;49.532;11.156;2023-05-07T15:07:25;3.30;;;1.60;;
15273;SDS011;7738;49.532;11.156;2023-05-07T15:09:58;2.20;;;1.65;;
15273;SDS011;7738;49.532;11.156;2023-05-07T15:12:29;2.75;;;1.67;;
15273;SDS011;7738;49.532;11.156;2023-05-07T15:14:59;4.03;;;1.80;;
15273;SDS011;7738;49.532;11.156;2023-05-07T15:17:30;2.00;;;1.35;;
15273;SDS011;7738;49.532;11.156;2023-05-07T15:20:00;2.00;;;1.27;;
15273;SDS011;7738;49.532;11.156;2023-05-07T15:22:31;2.30;;;1.70;;
15273;SDS011;7738;49.532;11.156;2023-05-07T15:25:05;2.38;;;1.55;;
15273;SDS011;7738;49.532;11.156;2023-05-07T15:27:36;3.58;;;2.00;;
15273;SDS011;7738;49.532;11.156;2023-05-07T15:30:07;3.15;;;1.55;;
15273;SDS011;7738;49.532;11.156;2023-05-07T15:32:39;1.52;;;1.15;;
15273;SDS011;7738;49.532;11.156;2023-05-07T15:35:09;2.42;;;1.30;;
15273;SDS011;7738;49.532;11.156;2023-05-07T15:37:39;2.20;;;1.30;;
15273;SDS011;7738;49.532;11.156;2023-05-07T15:40:13;2.25;;;1.63;;
15273;SDS011;7738;49.532;11.156;2023-05-07T15:42:44;2.63;;;1.73;;